x

Lake Of The Woods (45148) Weather Station

1:00pm - Fri 29th Jul 2016 All times are UTC.

  • Peak Period 2s
  • Wind
    2mph, 4mph gusts
  • Sea Temp 72°f
  • Sea Pressure 1019.6mb

More Historic Weather Station data

Upgrade to MSW Pro to gain access to the past 30 days of data for over 8000 Wavebouys and Weather Stations around the globe.

Join Pro

Comparision Forecast

View Surf forecast
   
Fri 07/29 1:00pm  -  2s 2 4 mph 1019.6mb 72f
12:00pm  -  2s 4
mph
1019.8mb 72f
11:00am  -  3s 4 7 mph 1019.7mb 72f
10:00am  -  3s 4
mph
1019.9mb 72f
9:00am  -  2s 4 7 mph 1019.9mb 72f
8:00am  -  6s 7 9 mph 1019.9mb 72f
7:00am  -  4s 4
mph
1019.9mb 72f
6:00am  -  7s 2 4 mph 1019.6mb 72f
5:00am  -  2s  -  2 mph 1019.7mb 73f
4:00am  -  2s 2 4 mph 1019.6mb 73f
3:00am  -  2s 4
mph
1019.5mb 73f
2:00am  -  2s 4 7 mph 1019.2mb 73f
1:00am  -  2s 4
mph
1019mb 74f
12:00am  -  2s 4 7 mph 1019.1mb 75f
Thu 07/28 11:00pm 0.3ft 3s 4 7 mph 1019.8mb 76f
10:00pm  -  2s 4 7 mph 1019.9mb 76f
9:00pm  -  2s 2 4 mph 1020.3mb 76f
8:00pm  -  2s 2 4 mph 1020.8mb 76f
7:00pm  -  3s 2 4 mph 1021.1mb 74f
6:00pm  -  2s 2 4 mph 1021.4mb 73f
5:00pm  -  2s 2 4 mph 1021.3mb 72f
4:00pm  -  3s 2 7 mph 1021.3mb 71f
3:00pm 0.3ft 3s 7 9 mph 1021.5mb 71f
2:00pm 0.3ft 2s 9 11 mph 1021.7mb 70f
1:00pm 0.3ft 3s 11
mph
1021.7mb 70f
12:00pm 0.3ft 3s 9 13 mph 1021.5mb 70f
11:00am 0.3ft 3s 9 11 mph 1021.3mb 70f
10:00am  -  3s 9 11 mph 1021.3mb 71f
9:00am 0.3ft 2s 9 11 mph 1021mb 71f
8:00am 0.3ft 2s 9 13 mph 1021mb 71f
7:00am  -  3s 11 13 mph 1021.1mb 71f
6:00am  -  3s 7 9 mph 1021.5mb 71f
5:00am 0.3ft 3s 9 11 mph 1021.1mb 71f
4:00am 0.3ft 2s 11 16 mph 1020.6mb 71f
3:00am 0.7ft 2s 13 18 mph 1020.4mb 71f
2:00am 0.7ft 2s 13 18 mph 1019.7mb 72f
1:00am 0.7ft 2s 16 18 mph 1019.8mb 72f
12:00am 0.3ft 2s 13 16 mph 1019.5mb 73f
Wed 07/27 11:00pm 0.3ft 2s 13 16 mph 1019.2mb 73f
10:00pm 0.3ft 3s 11 16 mph 1019.3mb 73f
9:00pm 0.3ft 3s 11 16 mph 1019.3mb 73f
8:00pm 0.3ft 2s 9 11 mph 1019.6mb 73f
7:00pm 0.3ft 2s 11 16 mph 1019.6mb 73f
6:00pm 0.3ft 3s 11 16 mph 1019.7mb 73f
5:00pm 0.3ft 3s 9 13 mph 1019.4mb 73f
4:00pm 0.3ft 3s 9 11 mph 1019.4mb 71f
3:00pm 0.3ft 3s 9 11 mph 1019.3mb 71f
2:00pm 0.3ft 3s 9 11 mph 1019.5mb 71f
1:00pm 0.3ft 2s 11 13 mph 1019.1mb 71f
12:00pm 0.3ft 2s 13 16 mph 1018.7mb 71f
11:00am 0.3ft 2s 13 16 mph 1019mb 71f
10:00am 0.3ft 2s 11 13 mph 1018.5mb 71f
9:00am 0.3ft 2s 11 13 mph 1018mb 71f
8:00am 0.7ft 2s 16 18 mph 1017.2mb 72f
7:00am 0.3ft 3s 16 18 mph 1017.3mb 72f
6:00am  -  4s 11 16 mph 1017.4mb 72f
5:00am  -  3s 9 11 mph 1017.2mb 72f
4:00am  -  3s 9 11 mph 1016.8mb 72f
3:00am  -  2s 11 13 mph 1016.5mb 72f
2:00am 0.3ft 3s 7 9 mph 1016mb 72f
1:00am 0.3ft 3s 11 13 mph 1015.7mb 72f
12:00am 0.3ft 2s 13 18 mph 1015.5mb 73f
Tue 07/26 11:00pm 0.3ft 3s 11 16 mph 1015.4mb 73f
10:00pm 0.3ft 3s 7 13 mph 1015.3mb 73f
9:00pm 0.3ft 2s 13 18 mph 1015mb 73f
8:00pm 0.3ft 2s 13 18 mph 1015.4mb 74f
7:00pm  -  3s 9 13 mph 1015.8mb 74f
6:00pm  -  2s 9 13 mph 1015.8mb 74f
5:00pm  -  2s 4 11 mph 1016mb 76f
4:00pm  -  2s 2 4 mph 1016.2mb 74f
3:00pm  -  2s  -  mph 1016.1mb 72f
2:00pm  -  3s 4
mph
1016mb 71f
1:00pm  -  3s 2 4 mph 1015.7mb 70f
12:00pm  -  2s 4 7 mph 1015.5mb 70f
11:00am  -  7s 4
mph
1015mb 70f
10:00am  -  2s 2 4 mph 1014.8mb 70f
9:00am  -  2s 2 4 mph 1014.6mb 70f
8:00am  -  2s 2 4 mph 1014.5mb 70f
7:00am  -  2s 7 9 mph 1014.5mb 70f
6:00am  -  2s 7 9 mph 1014.2mb 70f
5:00am  -  2s 4 7 mph 1014.4mb 70f
4:00am  -  2s 7
mph
1014.2mb 70f
3:00am  -  2s 4 7 mph 1014.1mb 70f
2:00am  -  3s 4 7 mph 1013.8mb 70f
1:00am  -  2s 4 7 mph 1013.5mb 71f
12:00am  -  2s 7 9 mph 1013.4mb 71f
Mon 07/25 11:00pm 0.3ft 3s 9
mph
1013.4mb 71f
10:00pm 0.3ft 3s 9 13 mph 1013.4mb 71f
9:00pm 0.3ft 3s 11 13 mph 1013.9mb 72f
8:00pm 0.3ft 3s 11 13 mph 1014.2mb 71f
7:00pm 0.3ft 3s 13 16 mph 1014.4mb 71f
6:00pm 0.3ft 3s 11 16 mph 1014.7mb 71f
5:00pm 0.3ft 2s 9 11 mph 1015mb 71f
4:00pm 0.3ft 3s 7 9 mph 1015.2mb 70f
3:00pm 0.3ft 3s 7 9 mph 1015.2mb 70f